Terminal Aerodrome Forecast
Issued by NWS

Home | Current Version | Previous Version | Graphics & Text | Print | Product List | Glossary On
Versions: 1 2 3 4 5 6 7 8 9 10 11 12 13 14 15 16 17 18 19 20 21 22
000
FTUS43 KICT 201631 AAB
TAFRSL
TAF AMD
KRSL 201631Z 2017/2112 17011KT P6SM BKN004
     FM201715 15008KT P6SM SCT015
     FM202100 11007KT P6SM SCT035
     FM210400 09004KT P6SM SCT050
     FM210600 07004KT P6SM BKN045=

USA.gov is the U.S. government's official web portal to all federal, state and local government web resources and services.